Time;durP1;ratioP1;P1;durP2;ratioP2;P2;SDS_P1;SDS_P2;PMS_P1;PMS_P2;Temp;Humidity;BMP_temperature;BMP_pressure;BME280_temperature;BME280_humidity;BME280_pressure;Samples;Min_cycle;Max_cycle;Signal;HPM_P1;HPM_P2
2022/05/26 00:01:04;;;;;;;4.65;2.58;;;;;;;17.83;43.81;101209.94;5086875;28;20027;-47
2022/05/26 00:03:31;;;;;;;5.20;2.33;;;;;;;17.83;43.92;101204.63;5089062;28;20040;-43
2022/05/26 00:05:57;;;;;;;2.95;2.53;;;;;;;17.86;43.89;101209.69;5086849;28;20098;-43
2022/05/26 00:08:23;;;;;;;3.85;2.28;;;;;;;17.87;44.00;101214.03;5084033;28;20032;-43
2022/05/26 00:10:48;;;;;;;3.95;2.47;;;;;;;17.86;44.05;101212.34;5081512;28;20016;-43
2022/05/26 00:13:14;;;;;;;3.20;2.00;;;;;;;17.86;44.24;101207.03;5082015;28;20959;-47
2022/05/26 00:15:39;;;;;;;2.78;2.13;;;;;;;17.86;44.22;101203.50;5083993;28;20032;-43
2022/05/26 00:18:04;;;;;;;3.28;1.85;;;;;;;17.86;44.25;101212.34;5084240;28;20046;-43
2022/05/26 00:20:30;;;;;;;7.63;2.30;;;;;;;17.84;44.34;101208.97;5084942;28;20068;-43
2022/05/26 00:22:55;;;;;;;3.40;2.03;;;;;;;17.82;44.31;101193.13;5084501;28;20479;-45
2022/05/26 00:25:21;;;;;;;2.67;2.35;;;;;;;17.83;44.54;101201.94;5086440;28;20115;-49
2022/05/26 00:27:46;;;;;;;4.57;2.30;;;;;;;17.81;44.61;101194.09;5086142;28;20043;-52
2022/05/26 00:30:12;;;;;;;2.40;2.17;;;;;;;17.81;44.86;101190.56;5082277;28;20031;-45
2022/05/26 00:32:37;;;;;;;3.47;2.13;;;;;;;17.78;44.80;101188.16;5085582;28;20032;-43
2022/05/26 00:35:03;;;;;;;5.00;2.50;;;;;;;17.78;44.97;101185.50;5083869;28;20498;-50
2022/05/26 00:37:29;;;;;;;2.83;1.88;;;;;;;17.77;45.12;101186.50;5085791;28;20028;-45
2022/05/26 00:39:54;;;;;;;3.88;2.40;;;;;;;17.77;45.19;101189.16;5085053;28;20036;-44
2022/05/26 00:42:20;;;;;;;5.40;3.00;;;;;;;17.76;45.22;101192.78;5088970;28;20036;-43
2022/05/26 00:44:45;;;;;;;7.35;3.22;;;;;;;17.75;45.25;101186.59;5081874;28;20038;-47
2022/05/26 00:47:25;;;;;;;6.30;2.58;;;;;;;17.75;45.54;101185.78;5086963;28;20077;-43
2022/05/26 00:49:50;;;;;;;;;;;;;;;17.74;45.25;101186.75;5086197;28;20028;-43
2022/05/26 00:52:22;;;;;;;5.20;2.38;;;;;;;17.74;45.43;101187.56;5088416;28;20220;-44
2022/05/26 00:54:52;;;;;;;3.00;2.20;;;;;;;17.74;45.54;101184.91;5087572;28;20024;-44
2022/05/26 00:57:25;;;;;;;4.93;2.00;;;;;;;17.74;45.51;101189.41;5082666;28;20040;-46
2022/05/26 00:59:57;;;;;;;2.65;2.15;;;;;;;17.72;45.31;101186.00;5086787;28;20035;-51
2022/05/26 01:02:32;;;;;;;2.78;1.95;;;;;;;17.70;45.60;101187.94;5083961;28;20024;-49
2022/05/26 01:05:00;;;;;;;4.40;2.05;;;;;;;17.67;45.71;101187.22;5080759;28;20055;-43
2022/05/26 01:07:31;;;;;;;2.42;1.92;;;;;;;17.67;45.80;101191.72;5084606;28;20442;-44
2022/05/26 01:09:57;;;;;;;4.05;1.90;;;;;;;17.66;45.95;101190.84;5083781;28;20042;-42
2022/05/26 01:12:23;;;;;;;3.67;1.80;;;;;;;17.66;45.93;101190.84;5086325;28;20102;-47
2022/05/26 01:14:59;;;;;;;5.70;1.90;;;;;;;17.67;45.96;101189.88;5083112;28;20030;-44
2022/05/26 01:17:48;;;;;;;5.07;2.13;;;;;;;17.71;45.94;101192.31;5083664;28;20032;-46
2022/05/26 01:20:23;;;;;;;4.55;2.20;;;;;;;17.72;46.21;101191.34;5088330;28;20032;-47
2022/05/26 01:23:07;;;;;;;2.90;2.28;;;;;;;17.72;45.89;101188.69;5088214;28;20131;-48
2022/05/26 01:25:39;;;;;;;3.75;2.30;;;;;;;17.71;45.96;101187.81;5082925;28;20106;-48
2022/05/26 01:28:27;;;;;;;5.25;2.60;;;;;;;17.68;45.98;101182.75;5084613;28;20613;-45
2022/05/26 01:31:17;;;;;;;2.88;2.10;;;;;;;17.66;46.19;101177.56;5078378;28;20039;-46
2022/05/26 01:33:58;;;;;;;4.05;2.10;;;;;;;17.66;46.19;101177.56;5084585;28;20031;-46
2022/05/26 01:36:40;;;;;;;2.90;1.95;;;;;;;17.67;46.25;101176.59;5082473;28;20031;-45
2022/05/26 01:39:15;;;;;;;2.33;2.00;;;;;;;17.65;46.34;101175.84;5080788;28;20040;-43
2022/05/26 01:42:22;;;;;;;3.70;1.95;;;;;;;17.64;46.40;101174.16;5086310;28;20092;-53
2022/05/26 01:45:08;;;;;;;3.40;2.20;;;;;;;17.60;46.06;101178.06;5067135;28;20150;-48
2022/05/26 01:47:33;;;;;;;2.67;2.05;;;;;;;17.57;46.13;101173.00;5087598;28;20058;-48
2022/05/26 01:50:09;;;;;;;3.75;2.20;;;;;;;17.56;46.13;101162.44;5088128;28;20216;-45
2022/05/26 01:52:56;;;;;;;3.92;2.17;;;;;;;17.55;46.17;101166.94;5084267;28;20123;-43
2022/05/26 01:55:31;;;;;;;3.28;2.05;;;;;;;17.55;45.97;101166.94;5083665;28;20031;-47
2022/05/26 01:58:31;;;;;;;3.08;2.10;;;;;;;17.52;45.97;101161.84;5080938;28;20020;-46
2022/05/26 02:01:01;;;;;;;2.67;2.03;;;;;;;17.51;45.89;101158.38;5081762;28;20024;-42
2022/05/26 02:03:30;;;;;;;2.65;2.10;;;;;;;17.51;45.63;101161.03;5082548;28;20391;-49
2022/05/26 02:06:07;;;;;;;3.42;2.00;;;;;;;17.51;45.57;101161.03;5087177;28;20161;-48
2022/05/26 02:08:40;;;;;;;3.83;1.88;;;;;;;17.50;45.51;101155.81;5084307;28;20020;-43
2022/05/26 02:11:13;;;;;;;4.53;1.90;;;;;;;17.50;45.37;101156.69;5083632;28;20475;-44
2022/05/26 02:14:03;;;;;;;2.10;1.60;;;;;;;17.50;45.26;101150.50;5083146;28;20112;-47
2022/05/26 02:16:55;;;;;;;2.58;1.63;;;;;;;17.47;44.98;101151.59;5077784;28;20586;-48
2022/05/26 02:19:50;;;;;;;4.45;1.70;;;;;;;17.44;44.96;101154.50;5082037;28;20552;-46
2022/05/26 02:22:21;;;;;;;1.85;1.50;;;;;;;17.40;44.83;101144.22;5084340;28;20483;-43
2022/05/26 02:24:58;;;;;;;1.88;1.75;;;;;;;17.32;44.82;101151.00;5086040;28;20047;-47
2022/05/26 02:27:26;;;;;;;2.28;1.40;;;;;;;17.26;44.74;101145.31;5084172;28;20124;-42
2022/05/26 02:29:53;;;;;;;2.70;1.65;;;;;;;17.21;44.84;101145.69;5084057;28;20031;-43
2022/05/26 02:32:43;;;;;;;4.75;1.70;;;;;;;17.14;45.00;101144.50;5083125;28;20028;-45
2022/05/26 02:35:18;;;;;;;3.65;1.58;;;;;;;17.13;44.96;101162.25;5079890;28;20039;-45
2022/05/26 02:37:48;;;;;;;3.70;1.58;;;;;;;17.10;44.91;101140.38;5080433;28;20032;-43
2022/05/26 02:40:14;;;;;;;;;;;;;;;17.08;44.93;101144.97;5085111;28;20059;-46
2022/05/26 02:43:06;;;;;;;1.85;1.30;;;;;;;17.04;44.90;101147.03;5085575;28;19951;-45
2022/05/26 02:45:34;;;;;;;3.45;1.77;;;;;;;17.02;44.84;101141.84;5075467;28;20055;-50
2022/05/26 02:48:00;;;;;;;2.25;1.40;;;;;;;17.03;44.81;101153.31;5084717;28;20016;-44
2022/05/26 02:50:56;;;;;;;3.05;1.60;;;;;;;17.00;44.77;101153.56;5084935;28;20043;-43
2022/05/26 02:53:51;;;;;;;1.48;1.30;;;;;;;16.99;44.71;101158.03;5084468;28;20082;-44
2022/05/26 02:56:41;;;;;;;2.78;1.40;;;;;;;16.97;44.68;101159.97;5083480;28;20024;-44
2022/05/26 02:59:30;;;;;;;4.10;1.50;;;;;;;16.94;44.66;101152.19;5081985;28;20038;-46
2022/05/26 03:02:03;;;;;;;;;;;;;;;16.95;44.81;101161.03;5082689;28;20453;-46
2022/05/26 03:04:43;;;;;;;2.20;1.52;;;;;;;16.95;44.57;101151.28;5081919;28;20399;-48
2022/05/26 03:07:15;;;;;;;2.45;1.30;;;;;;;16.95;44.54;101150.41;5084535;28;20097;-43
2022/05/26 03:09:42;;;;;;;2.80;1.30;;;;;;;16.94;44.74;101152.19;5088481;28;20567;-51
2022/05/26 03:12:27;;;;;;;1.92;1.42;;;;;;;16.95;44.55;101156.59;5087731;28;20043;-43
2022/05/26 03:14:53;;;;;;;2.30;1.23;;;;;;;16.96;44.42;101152.09;5077623;28;20027;-50
2022/05/26 03:17:19;;;;;;;3.33;1.23;;;;;;;16.96;44.40;101160.94;5083336;28;20040;-46
2022/05/26 03:19:45;;;;;;;3.30;1.50;;;;;;;16.97;44.20;101152.00;5089640;28;20415;-44
2022/05/26 03:22:10;;;;;;;4.78;1.30;;;;;;;16.99;43.99;101151.88;5092128;28;20142;-44
2022/05/26 03:24:36;;;;;;;4.70;1.35;;;;;;;17.01;44.08;101155.25;5087132;28;20505;-51
2022/05/26 03:27:01;;;;;;;4.80;1.30;;;;;;;17.01;43.96;101150.81;5082787;28;20025;-53
2022/05/26 03:29:27;;;;;;;2.13;1.10;;;;;;;17.02;44.04;101157.78;5087784;28;20441;-43
2022/05/26 03:31:52;;;;;;;1.90;1.20;;;;;;;17.01;44.02;101150.81;5086280;28;20036;-43
2022/05/26 03:42:30;;;;;;;3.85;1.20;;;;;;;17.15;44.08;101151.53;5087053;28;20042;-44
2022/05/26 03:44:57;;;;;;;3.47;0.98;;;;;;;17.18;44.06;101153.91;5082882;28;20028;-43
2022/05/26 03:47:23;;;;;;;1.40;1.00;;;;;;;17.20;44.05;101157.31;5084525;28;20394;-44
2022/05/26 03:49:49;;;;;;;3.85;1.00;;;;;;;17.21;44.17;101154.53;5089464;28;20108;-49
2022/05/26 03:52:14;;;;;;;5.40;1.08;;;;;;;17.24;44.17;101161.41;5088502;28;20036;-46
2022/05/26 03:54:40;;;;;;;5.25;1.55;;;;;;;17.24;44.21;101166.72;5088398;28;20043;-49
2022/05/26 03:57:06;;;;;;;3.22;0.90;;;;;;;17.26;44.51;101167.47;5083909;28;20046;-48
2022/05/26 03:59:33;;;;;;;5.18;1.10;;;;;;;17.27;44.31;101161.19;5087276;28;20114;-44
2022/05/26 04:01:59;;;;;;;2.70;0.95;;;;;;;17.28;44.45;101162.88;5085554;28;20129;-48
2022/05/26 04:04:25;;;;;;;3.55;1.00;;;;;;;17.32;44.50;101164.28;5086819;28;20027;-46
2022/05/26 04:06:50;;;;;;;2.78;0.90;;;;;;;17.39;44.65;101172.66;5085129;28;20033;-55
2022/05/26 04:09:16;;;;;;;2.50;1.00;;;;;;;17.44;44.61;101172.28;5086959;28;20035;-47
2022/05/26 04:11:41;;;;;;;2.80;1.10;;;;;;;17.46;44.57;101171.19;5086780;28;20038;-43
2022/05/26 04:14:07;;;;;;;4.22;1.00;;;;;;;17.48;44.41;101171.91;5086505;28;20036;-47
2022/05/26 04:16:33;;;;;;;3.03;1.40;;;;;;;17.48;44.45;101171.03;5086465;28;20403;-43
2022/05/26 04:18:58;;;;;;;1.33;1.05;;;;;;;17.46;44.48;101170.34;5086563;28;20035;-43
2022/05/26 04:21:24;;;;;;;2.17;1.10;;;;;;;17.46;44.42;101171.19;5080882;28;20145;-48
2022/05/26 04:23:49;;;;;;;1.20;0.90;;;;;;;17.46;44.43;101165.03;5084521;28;20028;-45
2022/05/26 04:26:15;;;;;;;3.60;1.23;;;;;;;17.45;44.58;101166.81;5083087;28;20036;-43
2022/05/26 04:28:41;;;;;;;2.33;0.90;;;;;;;17.49;44.52;101170.94;5082050;28;20395;-44
2022/05/26 04:31:06;;;;;;;3.00;1.10;;;;;;;17.49;44.55;101173.59;5082911;28;20034;-44
2022/05/26 04:33:32;;;;;;;2.28;1.00;;;;;;;17.48;44.68;101174.56;5075752;28;20385;-44
2022/05/26 04:35:58;;;;;;;3.13;1.40;;;;;;;17.48;44.60;101181.69;5075212;28;20038;-48
2022/05/26 04:38:24;;;;;;;2.67;1.10;;;;;;;17.47;44.76;101174.69;5084429;28;20032;-44
2022/05/26 04:41:01;;;;;;;2.42;1.08;;;;;;;17.49;44.85;101170.06;5086991;28;20032;-45
2022/05/26 04:43:27;;;;;;;1.42;0.90;;;;;;;17.50;44.81;101171.78;5085762;28;20060;-46
2022/05/26 04:45:52;;;;;;;2.75;1.20;;;;;;;17.51;44.86;101161.03;5082712;28;20054;-46
2022/05/26 04:48:21;;;;;;;3.15;1.20;;;;;;;17.54;44.98;101177.72;5084405;28;20020;-44
2022/05/26 04:50:48;;;;;;;3.17;1.30;;;;;;;17.55;45.12;101174.06;5081448;28;20055;-45
2022/05/26 04:53:14;;;;;;;2.97;1.00;;;;;;;17.55;45.09;101164.28;5089218;28;20142;-44
2022/05/26 04:55:40;;;;;;;2.78;1.25;;;;;;;17.60;45.21;101161.25;5085182;28;20054;-45
2022/05/26 04:58:05;;;;;;;1.70;1.10;;;;;;;17.60;45.33;101161.25;5085688;28;20032;-43
2022/05/26 05:00:31;;;;;;;3.40;0.98;;;;;;;17.61;45.47;101166.47;5083382;28;20061;-46
2022/05/26 05:02:56;;;;;;;2.53;1.02;;;;;;;17.63;45.43;101172.47;5086342;28;20077;-49
2022/05/26 05:05:22;;;;;;;1.60;0.90;;;;;;;17.66;45.47;101174.88;5085183;28;20032;-47
2022/05/26 05:07:47;;;;;;;5.63;1.10;;;;;;;17.67;45.39;101179.25;5082877;28;20032;-44
2022/05/26 05:10:12;;;;;;;2.40;1.23;;;;;;;17.69;45.49;101184.47;5080924;28;20086;-47
2022/05/26 05:12:40;;;;;;;1.85;1.10;;;;;;;17.72;45.39;101180.69;5088563;28;20028;-44
2022/05/26 05:15:12;;;;;;;3.92;1.10;;;;;;;17.73;45.29;101177.06;5085687;28;20032;-46
2022/05/26 05:17:38;;;;;;;3.67;1.25;;;;;;;17.72;45.31;101191.34;5086382;28;20031;-45
2022/05/26 05:20:04;;;;;;;4.18;0.98;;;;;;;17.69;45.20;101184.47;5086057;28;20368;-47
2022/05/26 05:22:38;;;;;;;3.10;1.10;;;;;;;17.68;45.36;101190.75;5083658;28;20063;-48
2022/05/26 05:25:28;;;;;;;1.55;1.17;;;;;;;17.71;45.39;101179.00;5083168;28;20082;-45
2022/05/26 05:28:01;;;;;;;5.25;1.10;;;;;;;17.78;45.49;101199.66;5086378;28;20109;-44
2022/05/26 05:30:38;;;;;;;3.95;1.20;;;;;;;17.81;45.41;101198.56;5083708;28;20104;-45
2022/05/26 05:33:10;;;;;;;2.08;0.98;;;;;;;17.80;45.35;101197.72;5088303;28;20088;-44
2022/05/26 05:35:49;;;;;;;5.47;1.10;;;;;;;17.82;45.40;101192.28;5085430;28;20106;-45
2022/05/26 05:38:17;;;;;;;5.35;1.17;;;;;;;17.82;45.46;101197.59;5084155;28;20056;-45
2022/05/26 05:40:43;;;;;;;5.97;1.17;;;;;;;17.83;45.26;101205.47;5085506;28;20529;-48
2022/05/26 05:43:08;;;;;;;1.52;0.90;;;;;;;17.89;45.58;101198.81;5084015;28;20032;-47
2022/05/26 05:45:34;;;;;;;1.80;1.08;;;;;;;17.96;45.46;101194.66;5080103;28;20085;-47
2022/05/26 05:47:59;;;;;;;3.67;1.30;;;;;;;18.00;45.42;101197.09;5084370;28;20032;-43
2022/05/26 05:50:25;;;;;;;1.85;1.10;;;;;;;18.03;45.46;101204.84;5082920;28;20616;-45
2022/05/26 05:52:51;;;;;;;2.25;1.00;;;;;;;18.05;45.69;101197.56;5079467;28;20376;-49
2022/05/26 05:55:16;;;;;;;4.82;1.13;;;;;;;18.10;45.57;101196.22;5082948;28;20032;-45
2022/05/26 05:57:42;;;;;;;2.63;0.98;;;;;;;18.18;45.47;101192.91;5082807;28;20080;-47
2022/05/26 06:00:08;;;;;;;2.40;1.13;;;;;;;18.20;45.07;101192.78;5079864;28;20032;-48
2022/05/26 06:02:33;;;;;;;6.70;1.20;;;;;;;18.17;45.37;101191.22;5084853;28;20028;-44
2022/05/26 06:04:59;;;;;;;2.78;1.10;;;;;;;18.19;45.38;101196.41;5083884;28;20035;-48
2022/05/26 06:07:25;;;;;;;2.45;1.45;;;;;;;18.20;45.32;101196.31;5085070;28;20031;-44
2022/05/26 06:09:51;;;;;;;3.72;1.30;;;;;;;18.18;45.36;101187.59;5070355;28;20036;-46
2022/05/26 06:12:17;;;;;;;2.08;1.10;;;;;;;18.16;45.46;101188.66;5060371;28;20063;-50
2022/05/26 06:14:43;;;;;;;3.72;1.15;;;;;;;18.15;45.52;101177.19;5065606;28;20086;-46
2022/05/26 06:17:13;;;;;;;2.88;1.40;;;;;;;18.11;45.81;101183.72;5066769;28;20439;-48
2022/05/26 06:19:40;;;;;;;3.10;1.40;;;;;;;18.16;45.97;101183.34;5081728;28;20062;-45
2022/05/26 06:22:15;;;;;;;3.70;1.10;;;;;;;18.19;46.02;101183.09;5085246;28;20110;-44
2022/05/26 06:24:41;;;;;;;3.70;1.33;;;;;;;18.22;45.86;101183.72;5081404;28;20081;-48
2022/05/26 06:29:54;;;;;;;5.05;1.20;;;;;;;18.25;46.41;101188.75;5076633;28;20403;-47
2022/05/26 06:38:08;;;;;;;5.80;1.38;;;;;;;18.18;46.61;101208.91;5062260;28;20078;-47
2022/05/26 06:40:35;;;;;;;3.58;1.20;;;;;;;18.17;46.79;101185.03;5067767;28;20048;-44
2022/05/26 06:43:00;;;;;;;2.33;1.20;;;;;;;18.20;46.72;101184.78;5077450;28;20048;-44
2022/05/26 06:45:26;;;;;;;2.03;1.17;;;;;;;18.23;46.66;101195.19;5079157;28;20046;-44
2022/05/26 06:47:51;;;;;;;2.38;1.20;;;;;;;18.23;46.78;101195.19;5083857;28;20028;-48
2022/05/26 06:50:17;;;;;;;3.03;1.17;;;;;;;18.23;46.82;101213.84;5084236;28;20050;-46
2022/05/26 06:52:43;;;;;;;6.78;1.48;;;;;;;18.21;47.11;101205.13;5079838;28;20075;-44
2022/05/26 06:55:09;;;;;;;3.15;1.67;;;;;;;18.23;46.97;101201.34;5084214;28;20457;-45
2022/05/26 06:57:34;;;;;;;3.45;1.10;;;;;;;18.26;47.09;101195.78;5085994;28;20069;-47
2022/05/26 07:00:00;;;;;;;4.63;1.25;;;;;;;18.33;47.10;101205.94;5069760;28;20028;-44
2022/05/26 07:02:26;;;;;;;3.30;1.30;;;;;;;18.36;46.97;101219.00;5087565;28;20132;-47
2022/05/26 07:04:52;;;;;;;2.33;0.98;;;;;;;18.39;47.10;101221.38;5064374;28;20080;-47
2022/05/26 07:07:17;;;;;;;2.92;1.17;;;;;;;18.41;47.04;101246.94;5085064;28;20032;-44
2022/05/26 07:09:44;;;;;;;5.13;1.20;;;;;;;18.40;46.93;101239.94;5081696;28;20094;-46
2022/05/26 07:12:10;;;;;;;4.32;1.23;;;;;;;18.38;47.22;101235.69;5088813;28;20055;-44
2022/05/26 07:14:35;;;;;;;4.65;1.88;;;;;;;18.32;47.26;101206.91;5087172;28;20024;-46
2022/05/26 07:17:01;;;;;;;3.17;1.50;;;;;;;18.26;47.60;101243.72;5086496;28;23634;-44
2022/05/26 07:19:26;;;;;;;4.75;1.40;;;;;;;18.20;47.75;101222.94;5082461;28;20115;-49
2022/05/26 07:21:52;;;;;;;3.38;1.38;;;;;;;18.18;48.02;101266.63;5086774;28;20111;-46
2022/05/26 07:24:24;;;;;;;4.65;1.45;;;;;;;18.16;48.15;101226.81;5083497;28;20115;-43
2022/05/26 07:26:50;;;;;;;8.15;2.10;;;;;;;18.16;48.17;101220.63;5091405;28;20016;-45
2022/05/26 07:29:17;;;;;;;3.17;1.30;;;;;;;18.17;48.46;101222.31;5080493;28;20043;-43
2022/05/26 07:31:43;;;;;;;2.03;1.10;;;;;;;18.21;48.60;101240.63;5085686;28;20028;-44
2022/05/26 07:34:08;;;;;;;3.53;1.25;;;;;;;18.24;48.73;101240.34;5080792;28;20080;-44
2022/05/26 07:42:08;;;;;;;2.72;1.20;;;;;;;18.40;48.88;101249.72;5085424;28;20498;-45
2022/05/26 07:44:35;;;;;;;;;;;;;;;18.43;48.42;101250.34;5081318;28;20023;-47
2022/05/26 07:47:06;;;;;;;1.52;1.00;;;;;;;18.49;48.52;101259.63;5082148;28;19919;-46
2022/05/26 07:49:47;;;;;;;4.03;1.50;;;;;;;18.50;48.69;101258.66;5088181;28;20868;-44
2022/05/26 07:52:14;;;;;;;4.93;1.33;;;;;;;18.48;48.88;101241.94;5090492;28;20032;-45
2022/05/26 07:54:41;;;;;;;4.20;1.30;;;;;;;18.49;48.55;101253.44;5089814;28;20024;-47
2022/05/26 07:57:12;;;;;;;1.75;1.17;;;;;;;18.51;48.59;101241.69;5086514;28;20084;-46
2022/05/26 07:59:37;;;;;;;5.10;1.67;;;;;;;18.52;48.61;101238.06;5087939;28;20036;-50
2022/05/26 08:02:03;;;;;;;2.17;1.00;;;;;;;18.55;48.36;101251.09;5085892;28;20089;-46
2022/05/26 08:04:29;;;;;;;3.70;1.27;;;;;;;18.51;48.59;101247.03;5083375;28;20097;-46
2022/05/26 08:06:54;;;;;;;3.10;1.42;;;;;;;18.52;48.83;101248.72;5081019;28;20042;-43
2022/05/26 08:09:22;;;;;;;5.68;2.28;;;;;;;18.54;49.10;101257.41;5075113;28;20044;-49
2022/05/26 08:11:48;;;;;;;4.05;1.13;;;;;;;18.59;48.87;101260.53;5081676;28;20043;-44
2022/05/26 08:14:14;;;;;;;2.25;1.05;;;;;;;18.59;48.70;101251.72;5082778;28;20024;-45
2022/05/26 08:16:40;;;;;;;5.95;1.10;;;;;;;18.60;48.37;101288.06;5080133;28;20710;-45
2022/05/26 08:19:06;;;;;;;3.80;1.02;;;;;;;18.57;48.49;101267.81;5080897;28;20189;-46
2022/05/26 08:21:32;;;;;;;3.72;1.10;;;;;;;18.61;48.46;101272.91;5081826;28;20110;-48
2022/05/26 08:24:00;;;;;;;2.58;0.90;;;;;;;18.65;48.19;101290.34;5083451;28;20075;-44
2022/05/26 08:26:26;;;;;;;2.53;0.90;;;;;;;18.67;47.83;101275.91;5079424;28;20431;-48
2022/05/26 08:28:51;;;;;;;2.22;1.00;;;;;;;18.68;47.68;101258.09;5077655;28;20055;-47
2022/05/26 08:31:16;;;;;;;2.72;0.90;;;;;;;18.70;47.17;101266.78;5082914;28;20063;-47
2022/05/26 08:33:42;;;;;;;2.50;0.90;;;;;;;18.68;47.40;101269.59;5084052;28;20106;-49
2022/05/26 08:36:16;;;;;;;2.00;0.93;;;;;;;18.73;47.05;101269.19;5084032;28;20039;-47
2022/05/26 08:38:44;;;;;;;2.95;1.10;;;;;;;18.76;46.85;101266.28;5082995;28;20046;-47
2022/05/26 08:41:16;;;;;;;1.83;0.95;;;;;;;18.80;46.88;101266.84;5083242;28;20404;-51
2022/05/26 08:43:46;;;;;;;4.05;0.90;;;;;;;18.82;46.52;101267.56;5081091;28;20866;-50
2022/05/26 08:46:17;;;;;;;;;;;;;;;18.89;46.69;101261.59;5080688;28;20032;-48
2022/05/26 08:49:08;;;;;;;1.98;1.10;;;;;;;18.99;46.25;101282.16;5079692;28;19926;-49
2022/05/26 08:51:50;;;;;;;1.90;1.00;;;;;;;19.04;46.09;101274.63;5083964;28;20080;-49
2022/05/26 08:54:30;;;;;;;3.45;1.05;;;;;;;19.06;46.22;101293.19;5086832;28;20024;-48
2022/05/26 08:56:58;;;;;;;3.70;1.00;;;;;;;19.05;46.25;101276.31;5079455;28;20443;-52
2022/05/26 08:59:31;;;;;;;7.25;0.90;;;;;;;19.07;46.03;101278.84;5084891;28;20043;-50
2022/05/26 09:02:00;;;;;;;2.53;0.70;;;;;;;19.08;45.96;101276.06;5082198;28;20028;-47
2022/05/26 09:04:26;;;;;;;2.10;1.17;;;;;;;19.11;45.70;101294.47;5082988;28;20036;-46
2022/05/26 09:15:14;;;;;;;2.08;0.95;;;;;;;18.99;45.63;101295.50;5080585;28;20047;-47
2022/05/26 09:17:39;;;;;;;3.05;1.20;;;;;;;19.00;45.90;101283.84;5077936;28;20063;-47
2022/05/26 09:20:25;;;;;;;2.75;0.95;;;;;;;18.96;45.73;101279.78;5083849;28;20028;-50
2022/05/26 09:22:51;;;;;;;3.85;1.05;;;;;;;18.94;45.74;101289.69;5081786;28;20024;-49
2022/05/26 09:25:52;;;;;;;4.43;1.05;;;;;;;18.89;45.38;101296.25;5073122;28;20055;-50
2022/05/26 09:28:32;;;;;;;2.42;0.82;;;;;;;18.84;45.64;101294.97;5076187;28;20027;-47
2022/05/26 09:31:16;;;;;;;;;;;;;;;18.79;45.67;101311.34;5080965;28;20032;-47
2022/05/26 09:33:42;;;;;;;2.90;1.00;;;;;;;18.81;45.79;101311.19;5089265;28;20606;-49
2022/05/26 09:36:15;;;;;;;3.45;1.40;;;;;;;18.85;45.61;101302.81;5085115;28;20816;-49
2022/05/26 09:38:43;;;;;;;3.15;1.10;;;;;;;18.86;45.68;101315.16;5083289;28;20024;-49
2022/05/26 09:41:15;;;;;;;2.95;0.98;;;;;;;18.89;45.84;101309.59;5083863;28;20093;-46
2022/05/26 09:43:50;;;;;;;2.85;0.90;;;;;;;18.97;45.75;101314.31;5086159;28;20434;-50
2022/05/26 09:46:16;;;;;;;5.15;1.77;;;;;;;19.08;45.76;101316.06;5085573;28;20051;-47
2022/05/26 09:48:46;;;;;;;4.82;0.90;;;;;;;19.16;45.54;101308.25;5085198;28;20063;-49
2022/05/26 09:51:13;;;;;;;2.17;0.70;;;;;;;19.23;45.34;101327.22;5084816;28;20059;-47
2022/05/26 09:53:43;;;;;;;2.95;0.90;;;;;;;19.24;45.19;101312.09;5085480;28;20119;-49
2022/05/26 09:56:12;;;;;;;1.52;0.85;;;;;;;19.21;45.30;101312.34;5083536;28;20027;-49
2022/05/26 09:58:42;;;;;;;2.30;0.82;;;;;;;19.18;45.38;101314.31;5083153;28;20044;-51
2022/05/26 10:01:26;;;;;;;1.90;0.90;;;;;;;19.16;45.64;101321.56;5081814;28;20136;-46
2022/05/26 10:04:06;;;;;;;3.50;0.80;;;;;;;19.18;45.51;101324.97;5081403;28;20024;-49
2022/05/26 10:06:48;;;;;;;1.63;0.85;;;;;;;19.21;44.96;101312.34;5081380;28;20034;-49
2022/05/26 10:09:34;;;;;;;3.10;0.85;;;;;;;19.22;45.09;101322.03;5083221;28;20039;-45
2022/05/26 10:12:11;;;;;;;4.82;1.30;;;;;;;19.24;44.88;101317.44;5079296;28;20024;-49
2022/05/26 10:14:37;;;;;;;2.38;0.80;;;;;;;19.27;44.85;101323.34;5083051;28;20055;-49
2022/05/26 10:17:05;;;;;;;3.17;1.15;;;;;;;19.31;44.43;101327.44;5083531;28;20598;-47
2022/05/26 10:19:30;;;;;;;1.60;0.90;;;;;;;19.36;44.48;101329.72;5084646;28;20049;-47
2022/05/26 10:22:24;;;;;;;4.18;0.85;;;;;;;19.42;44.36;101323.84;5076392;28;20032;-48
2022/05/26 10:25:04;;;;;;;3.45;0.90;;;;;;;19.47;44.25;101340.28;5073560;28;20111;-49
2022/05/26 10:27:39;;;;;;;1.02;0.88;;;;;;;19.48;44.42;101328.66;5078241;28;20487;-49
2022/05/26 10:30:23;;;;;;;3.33;1.00;;;;;;;19.53;44.34;101325.56;5088891;28;20028;-48
2022/05/26 10:33:16;;;;;;;2.50;1.10;;;;;;;19.55;44.23;101344.13;5086956;28;20153;-50
2022/05/26 10:35:55;;;;;;;1.17;0.80;;;;;;;19.59;43.63;101340.19;5080106;28;20027;-49
2022/05/26 10:38:42;;;;;;;2.05;0.80;;;;;;;19.59;43.45;101345.53;5089490;28;20449;-51
2022/05/26 10:41:10;;;;;;;2.65;1.10;;;;;;;19.54;43.21;101356.63;5099709;28;20085;-46
2022/05/26 10:43:44;;;;;;;2.20;1.00;;;;;;;19.46;43.13;101340.44;5090261;28;20034;-46
2022/05/26 10:46:11;;;;;;;3.17;1.00;;;;;;;19.39;42.92;101349.94;5078881;28;20514;-51
2022/05/26 10:48:48;;;;;;;2.85;0.90;;;;;;;19.37;42.85;101343.88;5085503;28;20111;-49
2022/05/26 10:51:31;;;;;;;2.45;1.17;;;;;;;19.38;42.84;101342.91;5091503;28;20032;-50
2022/05/26 10:54:03;;;;;;;3.30;1.02;;;;;;;19.35;42.99;101338.69;5082169;28;20039;-49
2022/05/26 10:56:58;;;;;;;2.55;0.90;;;;;;;19.40;42.69;101349.81;5083980;28;20076;-47
2022/05/26 10:59:42;;;;;;;4.18;1.15;;;;;;;19.44;41.97;101329.06;5079260;28;20441;-50
2022/05/26 11:02:32;;;;;;;6.00;1.15;;;;;;;19.48;42.12;101328.66;5093672;28;20023;-47
2022/05/26 11:05:13;;;;;;;2.42;0.90;;;;;;;19.57;41.82;101339.53;5084508;28;20391;-48
2022/05/26 11:07:53;;;;;;;2.05;0.85;;;;;;;19.61;41.45;101331.09;5085335;28;20035;-48
2022/05/26 11:10:51;;;;;;;2.78;1.20;;;;;;;19.62;41.12;101346.16;5083591;28;20029;-49
2022/05/26 11:13:35;;;;;;;2.15;0.95;;;;;;;19.57;40.46;101350.19;5063834;28;20054;-49
2022/05/26 11:19:00;;;;;;;3.47;1.25;;;;;;;19.52;40.54;101341.72;5080592;28;20159;-49
2022/05/26 11:21:25;;;;;;;2.95;1.00;;;;;;;19.53;40.43;101338.91;5086518;28;20035;-48
2022/05/26 11:23:51;;;;;;;4.10;1.30;;;;;;;19.54;40.39;101359.28;5079512;28;20035;-49
2022/05/26 11:26:33;;;;;;;6.15;1.15;;;;;;;19.56;40.22;101348.50;5086013;28;20032;-46
2022/05/26 11:29:11;;;;;;;4.25;1.25;;;;;;;19.54;40.16;101350.44;5077116;28;20031;-48
2022/05/26 11:38:05;;;;;;;2.80;1.00;;;;;;;19.56;40.84;101344.00;5083049;28;20061;-45
2022/05/26 11:40:52;;;;;;;4.18;1.10;;;;;;;19.59;40.80;101351.75;5085461;28;20431;-46
2022/05/26 11:43:29;;;;;;;2.83;1.38;;;;;;;19.65;41.17;101353.88;5080783;28;20032;-45
2022/05/26 11:45:56;;;;;;;6.93;1.10;;;;;;;19.71;41.01;101352.50;5092848;28;20021;-46
2022/05/26 11:48:31;;;;;;;7.70;1.08;;;;;;;19.69;41.12;101333.09;5088604;28;20025;-47
2022/05/26 11:51:24;;;;;;;4.78;1.02;;;;;;;19.74;41.01;101341.53;5070474;28;20052;-41
2022/05/26 11:53:50;;;;;;;1.70;1.00;;;;;;;19.83;40.76;101342.56;5079600;28;20157;-45
2022/05/26 11:56:33;;;;;;;2.70;1.17;;;;;;;19.89;40.50;101352.75;5084598;28;20056;-45
2022/05/26 11:59:17;;;;;;;5.78;1.33;;;;;;;19.90;39.80;101340.22;5083257;28;20491;-48
2022/05/26 12:01:46;;;;;;;11.35;5.75;;;;;;;19.90;39.86;101341.09;5086386;28;20032;-53
2022/05/26 12:04:23;;;;;;;4.73;1.10;;;;;;;19.88;39.51;101342.22;5085496;28;20028;-50
2022/05/26 12:07:15;;;;;;;3.60;1.10;;;;;;;19.82;39.63;101326.69;5080593;28;20738;-50
2022/05/26 12:09:48;;;;;;;4.10;1.20;;;;;;;19.87;39.80;101327.16;5033046;28;20600;-48
2022/05/26 12:12:16;;;;;;;3.40;1.20;;;;;;;19.98;39.73;101320.84;5081056;28;20115;-48
2022/05/26 12:14:47;;;;;;;2.70;1.15;;;;;;;20.09;39.74;101339.47;5077703;28;20019;-48
2022/05/26 12:17:37;;;;;;;3.35;1.10;;;;;;;20.15;39.46;101327.38;5078475;28;20028;-47
2022/05/26 12:20:25;;;;;;;4.45;1.20;;;;;;;20.15;39.45;101341.56;5082543;28;20020;-48
2022/05/26 12:22:51;;;;;;;4.57;1.27;;;;;;;20.10;39.67;101333.97;5076416;28;20032;-49
2022/05/26 12:25:23;;;;;;;2.95;1.05;;;;;;;20.02;39.78;101344.50;5078057;28;20043;-49
2022/05/26 12:27:48;;;;;;;3.65;1.42;;;;;;;19.92;39.90;101328.44;5086181;28;20476;-46